Boise, ID (83703)

2:56 AM MST en Diciembre 21, 2014 (GMT -0700)
Sunset | Change Station
CLOSE
Current Station
Estación meteorológica personal
Location: Boise, ID
Altura: 2677 ft
Estaciones meteorológicas cercanas

Alt 2677 ft 43.65 °N, 116.23 °W | Updated 7 minutes ago

Lluvia
Lluvia
41.7 ° F
Sensación térmica 42 ° F
N
1.7
Viento Variable Viento desde ENE

Hoy
Alta -- | Baja -- ° F
--% Posibilidad de precipitaciones
Ayer
Alta -- | Baja -- ° F
Precip. -- pul
8:15 AM 5:11 PM
Creciente menguante, 1% visible
Presión 29.87 pul
Visibilidad 6.0 Millas
Nubes Nublado 4200 ft
Vientos helados 42 ° F
Punto de rocío 41 ° F
Humedad 99%
Precipitaciones 0.22 pul
Espesor de la nieve No disponible.
UV 0 de una escala de 12
Polen .10 de una escala de 12
Calidad del aire No disponible.
Flu Activity No disponible.
METAR KBOI 210853Z 12010KT 6SM -RA BR OVC042 05/03 A2986 RMK AO2 SLP114 P0006 60014 T00500033 57008

More Conditions Fewer Conditions

Presión 29.87 pul
Visibilidad 6.0 Millas
Nubes Nublado 4200 ft
Vientos helados 42 ° F
Punto de rocío 41 ° F
Humedad 99%
Precipitaciones 0.22 pul
Espesor de la nieve No disponible.
UV 0 de una escala de 12
Polen .10 de una escala de 12
Calidad del aire No disponible.
Flu Activity No disponible.
METAR KBOI 210853Z 12010KT 6SM -RA BR OVC042 05/03 A2986 RMK AO2 SLP114 P0006 60014 T00500033 57008

More Conditions Fewer Conditions

10-Day Weather Forecast

Almanac

Astronomía

Dec. 21, 2014 Salida Puesta
Hora real
Crepúsculo civil
Crepúsculo náutico
Crepúsculo astronómico
Luna
Horas de luz
Horas de luz
Tomorrow will be .
, % of the Moon is Illuminated

Extremos de hoy

Máximos del estado Bajos del estado

Community

WunderPhotos

Upload Photos

1,779,364 ¡fotos cargadas!

WunderBlogs® & News

Nearby

Calidad del aire

  Calidad del aire Índice AQ Contaminante
Not available.

Grosos de nieve

Estación Profundido Altura

Actividad de terremotos

Ciudad Distance Mag. Tiempo y dato
Magnitud mínima muestra es 2,5.

Temperaturas de aguas costeras

Lugar Temperatura

Estaciones meteorológicas cercanas